Terminal Aerodrome Forecast
Issued by NWS Portland, ME

Home | Current Version | Previous Version | Text Only | Print | Product List | Glossary On
Versions: 1 2 3 4 5 6 7 8 9 10 11 12 13 14 15 16 17 18 19 20 21 22 23
000
FTUS41 KGYX 302328
TAFPWM
TAF
KPWM 302328Z 3100/3124 19005KT 6SM -SHRA SCT040 OVC070
      TEMPO 3100/3101 23012G25KT 4SM -TSRA BKN025CB OVC040
     FM310200 26004KT P6SM SKC
     FM311500 28010KT P6SM SCT050=

USA.gov is the U.S. government's official web portal to all federal, state and local government web resources and services.